sensor_id;sensor_type;location;lat;lon;timestamp;P1;durP1;ratioP1;P2;durP2;ratioP2
57231;SDS011;43488;46.934;8.276;2023-04-07T00:02:10;729.97;;;276.90;;
57231;SDS011;43488;46.934;8.276;2023-04-07T00:04:37;750.42;;;299.52;;
57231;SDS011;43488;46.934;8.276;2023-04-07T00:07:07;743.72;;;294.27;;
57231;SDS011;43488;46.934;8.276;2023-04-07T00:09:35;750.25;;;299.70;;
57231;SDS011;43488;46.934;8.276;2023-04-07T00:12:03;733.75;;;282.30;;
57231;SDS011;43488;46.934;8.276;2023-04-07T00:14:30;747.83;;;297.98;;
57231;SDS011;43488;46.934;8.276;2023-04-07T00:16:58;749.30;;;301.27;;
57231;SDS011;43488;46.934;8.276;2023-04-07T00:19:25;726.65;;;270.77;;
57231;SDS011;43488;46.934;8.276;2023-04-07T00:21:53;756.00;;;304.42;;
57231;SDS011;43488;46.934;8.276;2023-04-07T00:24:20;740.67;;;279.63;;
57231;SDS011;43488;46.934;8.276;2023-04-07T00:26:48;727.22;;;265.20;;
57231;SDS011;43488;46.934;8.276;2023-04-07T00:29:15;750.35;;;288.60;;
57231;SDS011;43488;46.934;8.276;2023-04-07T00:31:42;748.72;;;294.92;;
57231;SDS011;43488;46.934;8.276;2023-04-07T00:34:10;755.58;;;295.33;;
57231;SDS011;43488;46.934;8.276;2023-04-07T00:36:37;750.15;;;293.35;;
57231;SDS011;43488;46.934;8.276;2023-04-07T00:39:05;745.00;;;284.73;;
57231;SDS011;43488;46.934;8.276;2023-04-07T00:41:33;749.03;;;296.40;;
57231;SDS011;43488;46.934;8.276;2023-04-07T00:44:01;756.90;;;296.00;;
57231;SDS011;43488;46.934;8.276;2023-04-07T00:46:31;742.78;;;282.92;;
57231;SDS011;43488;46.934;8.276;2023-04-07T00:48:59;743.55;;;296.80;;
57231;SDS011;43488;46.934;8.276;2023-04-07T00:51:27;679.90;;;285.92;;
57231;SDS011;43488;46.934;8.276;2023-04-07T00:53:54;724.17;;;291.10;;
57231;SDS011;43488;46.934;8.276;2023-04-07T00:56:23;726.70;;;297.00;;
57231;SDS011;43488;46.934;8.276;2023-04-07T00:58:51;724.90;;;276.55;;
57231;SDS011;43488;46.934;8.276;2023-04-07T01:01:23;726.67;;;294.00;;
57231;SDS011;43488;46.934;8.276;2023-04-07T01:06:33;739.50;;;296.83;;
57231;SDS011;43488;46.934;8.276;2023-04-07T01:09:04;727.38;;;271.67;;
57231;SDS011;43488;46.934;8.276;2023-04-07T01:11:43;750.92;;;302.38;;
57231;SDS011;43488;46.934;8.276;2023-04-07T01:14:44;745.42;;;295.65;;
57231;SDS011;43488;46.934;8.276;2023-04-07T01:17:22;746.67;;;305.33;;
57231;SDS011;43488;46.934;8.276;2023-04-07T01:20:01;720.40;;;271.80;;
57231;SDS011;43488;46.934;8.276;2023-04-07T01:22:39;707.08;;;281.88;;
57231;SDS011;43488;46.934;8.276;2023-04-07T01:25:22;719.03;;;273.05;;
57231;SDS011;43488;46.934;8.276;2023-04-07T01:31:12;715.38;;;283.20;;
57231;SDS011;43488;46.934;8.276;2023-04-07T01:33:42;698.72;;;284.77;;
57231;SDS011;43488;46.934;8.276;2023-04-07T01:36:12;686.95;;;281.02;;
57231;SDS011;43488;46.934;8.276;2023-04-07T01:38:43;682.80;;;279.58;;
57231;SDS011;43488;46.934;8.276;2023-04-07T01:41:11;694.42;;;287.65;;
57231;SDS011;43488;46.934;8.276;2023-04-07T01:43:41;704.00;;;294.80;;
57231;SDS011;43488;46.934;8.276;2023-04-07T01:46:09;689.45;;;279.52;;
57231;SDS011;43488;46.934;8.276;2023-04-07T01:48:37;686.40;;;272.98;;
57231;SDS011;43488;46.934;8.276;2023-04-07T01:51:05;701.65;;;285.55;;
57231;SDS011;43488;46.934;8.276;2023-04-07T01:53:34;745.05;;;294.17;;
57231;SDS011;43488;46.934;8.276;2023-04-07T01:56:03;750.40;;;288.45;;
57231;SDS011;43488;46.934;8.276;2023-04-07T01:58:31;752.45;;;296.27;;
57231;SDS011;43488;46.934;8.276;2023-04-07T02:01:01;746.47;;;290.00;;
57231;SDS011;43488;46.934;8.276;2023-04-07T02:03:39;746.50;;;309.10;;
57231;SDS011;43488;46.934;8.276;2023-04-07T02:06:18;744.35;;;304.05;;
57231;SDS011;43488;46.934;8.276;2023-04-07T02:08:54;738.95;;;293.45;;
57231;SDS011;43488;46.934;8.276;2023-04-07T02:11:27;744.45;;;302.15;;
57231;SDS011;43488;46.934;8.276;2023-04-07T02:13:58;748.85;;;306.83;;
57231;SDS011;43488;46.934;8.276;2023-04-07T02:16:28;743.40;;;293.85;;
57231;SDS011;43488;46.934;8.276;2023-04-07T02:18:57;737.60;;;280.02;;
57231;SDS011;43488;46.934;8.276;2023-04-07T02:21:25;741.22;;;292.70;;
57231;SDS011;43488;46.934;8.276;2023-04-07T02:23:55;742.67;;;293.25;;
57231;SDS011;43488;46.934;8.276;2023-04-07T02:26:26;743.80;;;294.17;;
57231;SDS011;43488;46.934;8.276;2023-04-07T02:28:54;730.53;;;272.40;;
57231;SDS011;43488;46.934;8.276;2023-04-07T02:31:21;726.60;;;269.02;;
57231;SDS011;43488;46.934;8.276;2023-04-07T02:33:49;750.47;;;306.80;;
57231;SDS011;43488;46.934;8.276;2023-04-07T02:36:16;707.75;;;277.50;;
57231;SDS011;43488;46.934;8.276;2023-04-07T02:38:44;713.72;;;264.52;;
57231;SDS011;43488;46.934;8.276;2023-04-07T02:41:12;700.75;;;275.05;;
57231;SDS011;43488;46.934;8.276;2023-04-07T02:43:39;683.97;;;266.50;;
57231;SDS011;43488;46.934;8.276;2023-04-07T02:46:07;712.00;;;256.70;;
57231;SDS011;43488;46.934;8.276;2023-04-07T02:48:34;738.53;;;292.23;;
57231;SDS011;43488;46.934;8.276;2023-04-07T02:51:02;649.50;;;272.92;;
57231;SDS011;43488;46.934;8.276;2023-04-07T02:53:30;648.40;;;273.27;;
57231;SDS011;43488;46.934;8.276;2023-04-07T02:55:57;649.83;;;265.00;;
57231;SDS011;43488;46.934;8.276;2023-04-07T02:58:25;665.55;;;281.90;;
57231;SDS011;43488;46.934;8.276;2023-04-07T03:00:52;654.75;;;278.23;;
57231;SDS011;43488;46.934;8.276;2023-04-07T03:03:19;653.40;;;278.42;;
57231;SDS011;43488;46.934;8.276;2023-04-07T03:05:47;649.08;;;267.17;;
57231;SDS011;43488;46.934;8.276;2023-04-07T03:08:14;647.55;;;266.10;;
57231;SDS011;43488;46.934;8.276;2023-04-07T03:10:45;627.15;;;263.55;;
57231;SDS011;43488;46.934;8.276;2023-04-07T03:13:13;639.80;;;270.88;;
57231;SDS011;43488;46.934;8.276;2023-04-07T03:15:45;622.28;;;252.52;;
57231;SDS011;43488;46.934;8.276;2023-04-07T03:18:13;705.03;;;290.58;;
57231;SDS011;43488;46.934;8.276;2023-04-07T03:20:41;705.33;;;289.50;;
57231;SDS011;43488;46.934;8.276;2023-04-07T03:23:09;701.50;;;283.40;;
57231;SDS011;43488;46.934;8.276;2023-04-07T03:25:37;699.72;;;278.67;;
57231;SDS011;43488;46.934;8.276;2023-04-07T03:28:04;700.00;;;281.80;;
57231;SDS011;43488;46.934;8.276;2023-04-07T03:30:32;698.58;;;271.58;;
57231;SDS011;43488;46.934;8.276;2023-04-07T03:32:59;739.30;;;283.17;;
57231;SDS011;43488;46.934;8.276;2023-04-07T03:35:27;753.78;;;295.63;;
57231;SDS011;43488;46.934;8.276;2023-04-07T03:37:54;749.83;;;295.30;;
57231;SDS011;43488;46.934;8.276;2023-04-07T03:40:21;756.47;;;299.80;;
57231;SDS011;43488;46.934;8.276;2023-04-07T03:42:49;745.83;;;291.98;;
57231;SDS011;43488;46.934;8.276;2023-04-07T03:45:17;756.47;;;296.85;;
57231;SDS011;43488;46.934;8.276;2023-04-07T03:47:46;740.47;;;277.42;;
57231;SDS011;43488;46.934;8.276;2023-04-07T03:50:13;756.25;;;299.08;;
57231;SDS011;43488;46.934;8.276;2023-04-07T03:52:41;740.50;;;285.17;;
57231;SDS011;43488;46.934;8.276;2023-04-07T03:55:08;756.72;;;298.35;;
57231;SDS011;43488;46.934;8.276;2023-04-07T03:57:35;753.80;;;295.15;;
57231;SDS011;43488;46.934;8.276;2023-04-07T04:00:04;759.30;;;301.73;;
57231;SDS011;43488;46.934;8.276;2023-04-07T04:02:31;748.65;;;288.42;;
57231;SDS011;43488;46.934;8.276;2023-04-07T04:04:59;751.70;;;292.75;;
57231;SDS011;43488;46.934;8.276;2023-04-07T04:07:26;750.20;;;293.00;;
57231;SDS011;43488;46.934;8.276;2023-04-07T04:09:54;695.10;;;273.23;;
57231;SDS011;43488;46.934;8.276;2023-04-07T04:12:22;721.58;;;269.27;;
57231;SDS011;43488;46.934;8.276;2023-04-07T04:14:49;733.33;;;283.52;;
57231;SDS011;43488;46.934;8.276;2023-04-07T04:17:18;725.60;;;276.95;;
57231;SDS011;43488;46.934;8.276;2023-04-07T04:19:45;735.47;;;289.48;;
57231;SDS011;43488;46.934;8.276;2023-04-07T04:22:13;722.47;;;288.52;;
57231;SDS011;43488;46.934;8.276;2023-04-07T04:24:40;724.67;;;290.73;;
57231;SDS011;43488;46.934;8.276;2023-04-07T04:27:07;686.42;;;276.10;;
57231;SDS011;43488;46.934;8.276;2023-04-07T04:29:34;692.65;;;274.58;;
57231;SDS011;43488;46.934;8.276;2023-04-07T04:32:03;694.95;;;283.02;;
57231;SDS011;43488;46.934;8.276;2023-04-07T04:34:31;700.38;;;278.92;;
57231;SDS011;43488;46.934;8.276;2023-04-07T04:36:58;704.28;;;284.25;;
57231;SDS011;43488;46.934;8.276;2023-04-07T04:39:25;688.03;;;259.05;;
57231;SDS011;43488;46.934;8.276;2023-04-07T04:41:53;707.75;;;273.25;;
57231;SDS011;43488;46.934;8.276;2023-04-07T04:44:22;712.42;;;277.35;;
57231;SDS011;43488;46.934;8.276;2023-04-07T04:46:49;722.90;;;287.23;;
57231;SDS011;43488;46.934;8.276;2023-04-07T04:49:16;721.08;;;275.63;;
57231;SDS011;43488;46.934;8.276;2023-04-07T04:51:45;723.58;;;281.23;;
57231;SDS011;43488;46.934;8.276;2023-04-07T04:54:13;719.40;;;269.92;;
57231;SDS011;43488;46.934;8.276;2023-04-07T04:56:42;716.58;;;274.95;;
57231;SDS011;43488;46.934;8.276;2023-04-07T04:59:09;708.17;;;273.23;;
57231;SDS011;43488;46.934;8.276;2023-04-07T05:01:37;718.60;;;290.30;;
57231;SDS011;43488;46.934;8.276;2023-04-07T05:04:05;702.03;;;270.42;;
57231;SDS011;43488;46.934;8.276;2023-04-07T05:06:34;709.70;;;289.48;;
57231;SDS011;43488;46.934;8.276;2023-04-07T05:09:02;698.70;;;273.48;;
57231;SDS011;43488;46.934;8.276;2023-04-07T05:11:30;697.38;;;277.02;;
57231;SDS011;43488;46.934;8.276;2023-04-07T05:13:58;686.65;;;260.98;;
57231;SDS011;43488;46.934;8.276;2023-04-07T05:16:25;699.60;;;277.95;;
57231;SDS011;43488;46.934;8.276;2023-04-07T05:18:53;679.53;;;287.35;;
57231;SDS011;43488;46.934;8.276;2023-04-07T05:21:22;681.72;;;282.55;;
57231;SDS011;43488;46.934;8.276;2023-04-07T05:23:50;669.25;;;263.17;;
57231;SDS011;43488;46.934;8.276;2023-04-07T05:26:17;673.00;;;269.70;;
57231;SDS011;43488;46.934;8.276;2023-04-07T05:28:45;717.28;;;287.67;;
57231;SDS011;43488;46.934;8.276;2023-04-07T05:31:12;689.45;;;284.13;;
57231;SDS011;43488;46.934;8.276;2023-04-07T05:33:40;681.63;;;276.40;;
57231;SDS011;43488;46.934;8.276;2023-04-07T05:36:07;693.65;;;282.33;;
57231;SDS011;43488;46.934;8.276;2023-04-07T05:38:35;674.97;;;269.65;;
57231;SDS011;43488;46.934;8.276;2023-04-07T05:41:03;715.97;;;297.63;;
57231;SDS011;43488;46.934;8.276;2023-04-07T05:43:31;685.60;;;276.02;;
57231;SDS011;43488;46.934;8.276;2023-04-07T05:46:02;702.80;;;278.85;;
57231;SDS011;43488;46.934;8.276;2023-04-07T05:48:29;713.42;;;277.38;;
57231;SDS011;43488;46.934;8.276;2023-04-07T05:50:57;727.22;;;297.60;;
57231;SDS011;43488;46.934;8.276;2023-04-07T05:53:34;725.60;;;289.15;;
57231;SDS011;43488;46.934;8.276;2023-04-07T05:56:01;727.22;;;289.58;;
57231;SDS011;43488;46.934;8.276;2023-04-07T05:58:29;727.60;;;293.42;;
57231;SDS011;43488;46.934;8.276;2023-04-07T06:00:56;720.35;;;293.73;;
57231;SDS011;43488;46.934;8.276;2023-04-07T06:03:25;722.15;;;286.00;;
57231;SDS011;43488;46.934;8.276;2023-04-07T06:05:53;700.08;;;270.63;;
57231;SDS011;43488;46.934;8.276;2023-04-07T06:08:21;713.85;;;280.17;;
57231;SDS011;43488;46.934;8.276;2023-04-07T06:10:49;722.38;;;295.58;;
57231;SDS011;43488;46.934;8.276;2023-04-07T06:13:17;716.63;;;282.48;;
57231;SDS011;43488;46.934;8.276;2023-04-07T06:15:44;714.60;;;286.08;;
57231;SDS011;43488;46.934;8.276;2023-04-07T06:18:12;699.67;;;271.02;;
57231;SDS011;43488;46.934;8.276;2023-04-07T06:20:39;692.85;;;268.70;;
57231;SDS011;43488;46.934;8.276;2023-04-07T06:23:07;705.08;;;287.42;;
57231;SDS011;43488;46.934;8.276;2023-04-07T06:25:34;685.42;;;287.38;;
57231;SDS011;43488;46.934;8.276;2023-04-07T06:28:01;674.45;;;268.80;;
57231;SDS011;43488;46.934;8.276;2023-04-07T06:30:29;681.92;;;278.85;;
57231;SDS011;43488;46.934;8.276;2023-04-07T06:32:57;688.05;;;273.60;;
57231;SDS011;43488;46.934;8.276;2023-04-07T06:35:24;699.03;;;286.77;;
57231;SDS011;43488;46.934;8.276;2023-04-07T06:37:52;705.47;;;289.02;;
57231;SDS011;43488;46.934;8.276;2023-04-07T06:40:21;706.67;;;297.17;;
57231;SDS011;43488;46.934;8.276;2023-04-07T06:42:50;695.92;;;274.33;;
57231;SDS011;43488;46.934;8.276;2023-04-07T06:45:20;698.53;;;274.98;;
57231;SDS011;43488;46.934;8.276;2023-04-07T06:47:48;709.65;;;284.33;;
57231;SDS011;43488;46.934;8.276;2023-04-07T06:50:15;714.67;;;289.00;;
57231;SDS011;43488;46.934;8.276;2023-04-07T06:52:46;714.47;;;284.88;;
57231;SDS011;43488;46.934;8.276;2023-04-07T06:55:14;711.28;;;282.98;;
57231;SDS011;43488;46.934;8.276;2023-04-07T06:57:42;715.83;;;280.50;;
57231;SDS011;43488;46.934;8.276;2023-04-07T07:00:11;715.35;;;286.50;;
57231;SDS011;43488;46.934;8.276;2023-04-07T07:02:39;712.22;;;279.42;;
57231;SDS011;43488;46.934;8.276;2023-04-07T07:05:06;724.80;;;300.10;;
57231;SDS011;43488;46.934;8.276;2023-04-07T07:07:34;716.83;;;282.92;;
57231;SDS011;43488;46.934;8.276;2023-04-07T07:10:03;716.22;;;286.20;;
57231;SDS011;43488;46.934;8.276;2023-04-07T07:12:33;725.50;;;292.55;;
57231;SDS011;43488;46.934;8.276;2023-04-07T07:15:03;723.42;;;288.80;;
57231;SDS011;43488;46.934;8.276;2023-04-07T07:17:32;726.50;;;292.50;;
57231;SDS011;43488;46.934;8.276;2023-04-07T07:20:00;702.42;;;267.20;;
57231;SDS011;43488;46.934;8.276;2023-04-07T07:22:31;715.30;;;278.10;;
57231;SDS011;43488;46.934;8.276;2023-04-07T07:24:59;725.88;;;289.38;;
57231;SDS011;43488;46.934;8.276;2023-04-07T07:27:26;719.20;;;276.00;;
57231;SDS011;43488;46.934;8.276;2023-04-07T07:29:57;728.42;;;284.50;;
57231;SDS011;43488;46.934;8.276;2023-04-07T07:32:24;724.22;;;282.23;;
57231;SDS011;43488;46.934;8.276;2023-04-07T07:34:53;724.35;;;281.35;;
57231;SDS011;43488;46.934;8.276;2023-04-07T07:37:21;726.47;;;287.98;;
57231;SDS011;43488;46.934;8.276;2023-04-07T07:39:49;725.38;;;289.67;;
57231;SDS011;43488;46.934;8.276;2023-04-07T07:42:17;716.08;;;280.40;;
57231;SDS011;43488;46.934;8.276;2023-04-07T07:44:45;710.45;;;275.13;;
57231;SDS011;43488;46.934;8.276;2023-04-07T07:47:13;719.50;;;290.00;;
57231;SDS011;43488;46.934;8.276;2023-04-07T07:49:41;703.20;;;274.42;;
57231;SDS011;43488;46.934;8.276;2023-04-07T07:52:09;704.28;;;273.27;;
57231;SDS011;43488;46.934;8.276;2023-04-07T07:54:37;723.05;;;280.80;;
57231;SDS011;43488;46.934;8.276;2023-04-07T07:57:04;710.65;;;269.67;;
57231;SDS011;43488;46.934;8.276;2023-04-07T07:59:32;720.33;;;284.30;;
57231;SDS011;43488;46.934;8.276;2023-04-07T08:02:00;720.72;;;279.05;;
57231;SDS011;43488;46.934;8.276;2023-04-07T08:04:28;724.55;;;280.67;;
57231;SDS011;43488;46.934;8.276;2023-04-07T08:06:55;718.28;;;273.15;;
57231;SDS011;43488;46.934;8.276;2023-04-07T08:09:23;726.60;;;281.05;;
57231;SDS011;43488;46.934;8.276;2023-04-07T08:11:52;726.35;;;282.88;;
57231;SDS011;43488;46.934;8.276;2023-04-07T08:14:19;718.95;;;268.45;;
57231;SDS011;43488;46.934;8.276;2023-04-07T08:16:47;733.17;;;287.83;;
57231;SDS011;43488;46.934;8.276;2023-04-07T08:19:15;722.08;;;275.60;;
57231;SDS011;43488;46.934;8.276;2023-04-07T08:21:42;724.63;;;277.23;;
57231;SDS011;43488;46.934;8.276;2023-04-07T08:24:13;730.40;;;281.20;;
57231;SDS011;43488;46.934;8.276;2023-04-07T08:26:40;731.13;;;284.45;;
57231;SDS011;43488;46.934;8.276;2023-04-07T08:29:11;740.75;;;285.17;;
57231;SDS011;43488;46.934;8.276;2023-04-07T08:31:38;734.13;;;269.67;;
57231;SDS011;43488;46.934;8.276;2023-04-07T08:34:10;755.05;;;297.30;;
57231;SDS011;43488;46.934;8.276;2023-04-07T08:36:39;758.50;;;299.17;;
57231;SDS011;43488;46.934;8.276;2023-04-07T08:39:08;753.10;;;297.10;;
57231;SDS011;43488;46.934;8.276;2023-04-07T08:41:39;751.95;;;287.30;;
57231;SDS011;43488;46.934;8.276;2023-04-07T08:44:10;750.38;;;290.15;;
57231;SDS011;43488;46.934;8.276;2023-04-07T08:46:41;745.67;;;280.40;;
57231;SDS011;43488;46.934;8.276;2023-04-07T08:49:11;752.88;;;289.27;;
57231;SDS011;43488;46.934;8.276;2023-04-07T08:51:43;764.05;;;298.35;;
57231;SDS011;43488;46.934;8.276;2023-04-07T08:54:14;749.75;;;279.85;;
57231;SDS011;43488;46.934;8.276;2023-04-07T08:56:48;759.65;;;290.83;;
57231;SDS011;43488;46.934;8.276;2023-04-07T08:59:15;759.97;;;295.10;;
57231;SDS011;43488;46.934;8.276;2023-04-07T09:01:44;765.97;;;297.75;;
57231;SDS011;43488;46.934;8.276;2023-04-07T09:04:12;744.47;;;274.73;;
57231;SDS011;43488;46.934;8.276;2023-04-07T09:06:42;755.55;;;288.60;;
57231;SDS011;43488;46.934;8.276;2023-04-07T09:09:12;744.47;;;274.60;;
57231;SDS011;43488;46.934;8.276;2023-04-07T09:11:42;748.78;;;278.17;;
57231;SDS011;43488;46.934;8.276;2023-04-07T09:14:10;761.67;;;292.58;;
57231;SDS011;43488;46.934;8.276;2023-04-07T09:16:37;746.35;;;273.45;;
57231;SDS011;43488;46.934;8.276;2023-04-07T09:19:05;762.15;;;295.17;;
57231;SDS011;43488;46.934;8.276;2023-04-07T09:21:51;754.95;;;282.77;;
57231;SDS011;43488;46.934;8.276;2023-04-07T09:24:20;765.90;;;298.10;;
57231;SDS011;43488;46.934;8.276;2023-04-07T09:27:14;757.17;;;284.15;;
57231;SDS011;43488;46.934;8.276;2023-04-07T09:29:43;761.80;;;287.75;;
57231;SDS011;43488;46.934;8.276;2023-04-07T09:32:22;760.92;;;288.88;;
57231;SDS011;43488;46.934;8.276;2023-04-07T09:35:07;765.17;;;294.15;;
57231;SDS011;43488;46.934;8.276;2023-04-07T09:37:37;756.15;;;279.20;;
57231;SDS011;43488;46.934;8.276;2023-04-07T09:40:05;768.63;;;297.95;;
57231;SDS011;43488;46.934;8.276;2023-04-07T09:42:34;766.45;;;294.33;;
57231;SDS011;43488;46.934;8.276;2023-04-07T09:45:07;765.35;;;291.45;;
57231;SDS011;43488;46.934;8.276;2023-04-07T09:47:36;767.60;;;296.30;;
57231;SDS011;43488;46.934;8.276;2023-04-07T09:50:03;751.67;;;281.70;;
57231;SDS011;43488;46.934;8.276;2023-04-07T09:52:49;773.75;;;299.13;;
57231;SDS011;43488;46.934;8.276;2023-04-07T09:55:19;768.55;;;296.83;;
57231;SDS011;43488;46.934;8.276;2023-04-07T09:57:49;770.63;;;302.00;;
57231;SDS011;43488;46.934;8.276;2023-04-07T10:00:17;774.55;;;307.45;;
57231;SDS011;43488;46.934;8.276;2023-04-07T10:02:44;757.90;;;281.35;;
57231;SDS011;43488;46.934;8.276;2023-04-07T10:05:13;774.70;;;308.25;;
57231;SDS011;43488;46.934;8.276;2023-04-07T10:07:41;747.33;;;267.65;;
57231;SDS011;43488;46.934;8.276;2023-04-07T10:10:10;776.38;;;310.58;;
57231;SDS011;43488;46.934;8.276;2023-04-07T10:12:38;747.70;;;261.38;;
57231;SDS011;43488;46.934;8.276;2023-04-07T10:15:07;767.75;;;296.80;;
57231;SDS011;43488;46.934;8.276;2023-04-07T10:17:39;761.75;;;290.35;;
57231;SDS011;43488;46.934;8.276;2023-04-07T10:20:11;771.28;;;301.05;;
57231;SDS011;43488;46.934;8.276;2023-04-07T10:22:40;757.13;;;279.48;;
57231;SDS011;43488;46.934;8.276;2023-04-07T10:25:10;774.53;;;309.80;;
57231;SDS011;43488;46.934;8.276;2023-04-07T10:27:43;752.90;;;267.33;;
57231;SDS011;43488;46.934;8.276;2023-04-07T10:30:24;745.88;;;270.35;;
57231;SDS011;43488;46.934;8.276;2023-04-07T10:32:58;773.65;;;299.27;;
57231;SDS011;43488;46.934;8.276;2023-04-07T10:35:26;755.20;;;276.27;;
57231;SDS011;43488;46.934;8.276;2023-04-07T10:40:36;752.07;;;271.67;;
57231;SDS011;43488;46.934;8.276;2023-04-07T10:43:04;756.50;;;279.63;;
57231;SDS011;43488;46.934;8.276;2023-04-07T10:48:15;772.50;;;301.23;;
57231;SDS011;43488;46.934;8.276;2023-04-07T10:50:45;774.80;;;309.85;;
57231;SDS011;43488;46.934;8.276;2023-04-07T10:56:24;767.00;;;292.48;;
57231;SDS011;43488;46.934;8.276;2023-04-07T10:59:12;774.60;;;306.80;;
57231;SDS011;43488;46.934;8.276;2023-04-07T11:01:41;772.25;;;301.92;;
57231;SDS011;43488;46.934;8.276;2023-04-07T11:04:09;753.75;;;279.30;;
57231;SDS011;43488;46.934;8.276;2023-04-07T11:06:45;764.60;;;297.08;;
57231;SDS011;43488;46.934;8.276;2023-04-07T11:09:17;775.92;;;308.60;;
57231;SDS011;43488;46.934;8.276;2023-04-07T11:11:47;776.60;;;314.40;;
57231;SDS011;43488;46.934;8.276;2023-04-07T11:14:27;748.75;;;257.90;;
57231;SDS011;43488;46.934;8.276;2023-04-07T11:16:56;775.50;;;311.05;;
57231;SDS011;43488;46.934;8.276;2023-04-07T11:19:24;749.00;;;265.63;;
57231;SDS011;43488;46.934;8.276;2023-04-07T11:24:40;757.65;;;273.23;;
57231;SDS011;43488;46.934;8.276;2023-04-07T11:27:14;774.90;;;307.00;;
57231;SDS011;43488;46.934;8.276;2023-04-07T11:29:42;760.97;;;282.00;;
57231;SDS011;43488;46.934;8.276;2023-04-07T11:32:09;768.35;;;293.52;;
57231;SDS011;43488;46.934;8.276;2023-04-07T11:34:38;768.03;;;295.25;;
57231;SDS011;43488;46.934;8.276;2023-04-07T11:37:22;768.50;;;294.90;;
57231;SDS011;43488;46.934;8.276;2023-04-07T11:39:54;765.70;;;283.52;;
57231;SDS011;43488;46.934;8.276;2023-04-07T11:42:37;750.47;;;271.93;;
57231;SDS011;43488;46.934;8.276;2023-04-07T11:45:06;768.75;;;291.35;;
57231;SDS011;43488;46.934;8.276;2023-04-07T11:47:45;774.42;;;302.58;;
57231;SDS011;43488;46.934;8.276;2023-04-07T11:50:13;761.65;;;281.23;;
57231;SDS011;43488;46.934;8.276;2023-04-07T11:52:44;765.30;;;291.13;;
57231;SDS011;43488;46.934;8.276;2023-04-07T11:55:15;764.38;;;289.25;;
57231;SDS011;43488;46.934;8.276;2023-04-07T11:57:48;756.85;;;277.85;;
57231;SDS011;43488;46.934;8.276;2023-04-07T12:00:17;760.05;;;275.77;;
57231;SDS011;43488;46.934;8.276;2023-04-07T12:02:45;763.78;;;286.35;;
57231;SDS011;43488;46.934;8.276;2023-04-07T12:05:13;762.78;;;285.67;;
57231;SDS011;43488;46.934;8.276;2023-04-07T12:07:51;761.33;;;284.08;;
57231;SDS011;43488;46.934;8.276;2023-04-07T12:10:21;757.88;;;278.98;;
57231;SDS011;43488;46.934;8.276;2023-04-07T12:12:54;773.35;;;300.75;;
57231;SDS011;43488;46.934;8.276;2023-04-07T12:15:22;760.72;;;279.77;;
57231;SDS011;43488;46.934;8.276;2023-04-07T12:17:49;768.15;;;294.20;;
57231;SDS011;43488;46.934;8.276;2023-04-07T12:20:17;763.17;;;285.33;;
57231;SDS011;43488;46.934;8.276;2023-04-07T12:22:44;772.85;;;299.83;;
57231;SDS011;43488;46.934;8.276;2023-04-07T12:25:14;786.75;;;313.98;;
57231;SDS011;43488;46.934;8.276;2023-04-07T12:27:41;777.17;;;309.58;;
57231;SDS011;43488;46.934;8.276;2023-04-07T12:30:09;779.33;;;309.13;;
57231;SDS011;43488;46.934;8.276;2023-04-07T12:32:39;773.65;;;301.02;;
57231;SDS011;43488;46.934;8.276;2023-04-07T12:35:07;765.17;;;285.10;;
57231;SDS011;43488;46.934;8.276;2023-04-07T12:37:34;767.35;;;292.42;;
57231;SDS011;43488;46.934;8.276;2023-04-07T12:40:03;776.70;;;306.63;;
57231;SDS011;43488;46.934;8.276;2023-04-07T12:42:33;768.80;;;295.92;;
57231;SDS011;43488;46.934;8.276;2023-04-07T12:45:00;769.80;;;293.30;;
57231;SDS011;43488;46.934;8.276;2023-04-07T12:47:29;774.05;;;304.35;;
57231;SDS011;43488;46.934;8.276;2023-04-07T12:49:57;766.20;;;299.02;;
57231;SDS011;43488;46.934;8.276;2023-04-07T12:52:25;746.92;;;271.08;;
57231;SDS011;43488;46.934;8.276;2023-04-07T12:54:53;775.30;;;302.65;;
57231;SDS011;43488;46.934;8.276;2023-04-07T12:57:20;771.03;;;298.63;;
57231;SDS011;43488;46.934;8.276;2023-04-07T12:59:48;768.65;;;295.30;;
57231;SDS011;43488;46.934;8.276;2023-04-07T13:02:17;769.20;;;301.25;;
57231;SDS011;43488;46.934;8.276;2023-04-07T13:04:45;755.88;;;278.08;;
57231;SDS011;43488;46.934;8.276;2023-04-07T13:07:13;745.85;;;285.23;;
57231;SDS011;43488;46.934;8.276;2023-04-07T13:09:41;756.05;;;286.58;;
57231;SDS011;43488;46.934;8.276;2023-04-07T13:12:10;727.13;;;288.52;;
57231;SDS011;43488;46.934;8.276;2023-04-07T13:14:38;724.50;;;279.23;;
57231;SDS011;43488;46.934;8.276;2023-04-07T13:17:07;732.88;;;309.40;;
57231;SDS011;43488;46.934;8.276;2023-04-07T13:19:34;692.15;;;273.63;;
57231;SDS011;43488;46.934;8.276;2023-04-07T13:22:01;733.15;;;286.52;;
57231;SDS011;43488;46.934;8.276;2023-04-07T13:24:29;745.03;;;297.25;;
57231;SDS011;43488;46.934;8.276;2023-04-07T13:26:56;724.67;;;278.50;;
57231;SDS011;43488;46.934;8.276;2023-04-07T13:29:23;749.60;;;310.38;;
57231;SDS011;43488;46.934;8.276;2023-04-07T13:31:51;719.17;;;263.33;;
57231;SDS011;43488;46.934;8.276;2023-04-07T13:34:19;741.00;;;285.80;;
57231;SDS011;43488;46.934;8.276;2023-04-07T13:36:46;741.83;;;297.38;;
57231;SDS011;43488;46.934;8.276;2023-04-07T13:39:14;749.13;;;300.67;;
57231;SDS011;43488;46.934;8.276;2023-04-07T13:41:41;749.80;;;309.85;;
57231;SDS011;43488;46.934;8.276;2023-04-07T13:44:09;713.22;;;255.88;;
57231;SDS011;43488;46.934;8.276;2023-04-07T13:46:39;751.58;;;308.83;;
57231;SDS011;43488;46.934;8.276;2023-04-07T13:49:06;727.90;;;274.98;;
57231;SDS011;43488;46.934;8.276;2023-04-07T13:51:34;728.97;;;283.35;;
57231;SDS011;43488;46.934;8.276;2023-04-07T13:54:01;725.85;;;279.15;;
57231;SDS011;43488;46.934;8.276;2023-04-07T13:56:28;739.30;;;293.27;;
57231;SDS011;43488;46.934;8.276;2023-04-07T13:58:56;734.53;;;290.55;;
57231;SDS011;43488;46.934;8.276;2023-04-07T14:01:24;737.85;;;300.70;;
57231;SDS011;43488;46.934;8.276;2023-04-07T14:03:51;725.58;;;279.70;;
57231;SDS011;43488;46.934;8.276;2023-04-07T14:06:19;729.05;;;290.58;;
57231;SDS011;43488;46.934;8.276;2023-04-07T14:08:49;721.00;;;277.52;;
57231;SDS011;43488;46.934;8.276;2023-04-07T14:11:20;722.83;;;285.40;;
57231;SDS011;43488;46.934;8.276;2023-04-07T14:13:48;734.28;;;290.80;;
57231;SDS011;43488;46.934;8.276;2023-04-07T14:16:16;757.88;;;295.98;;
57231;SDS011;43488;46.934;8.276;2023-04-07T14:18:44;774.25;;;299.38;;
57231;SDS011;43488;46.934;8.276;2023-04-07T14:21:12;778.05;;;295.67;;
57231;SDS011;43488;46.934;8.276;2023-04-07T14:23:41;776.33;;;291.88;;
57231;SDS011;43488;46.934;8.276;2023-04-07T14:26:09;770.28;;;289.15;;